createdAt,value
2023-12-17T00:00:50.830Z,17.07
2023-12-17T00:03:20.739Z,18.63
2023-12-17T00:05:49.919Z,17.03
2023-12-17T00:08:21.978Z,16.60
2023-12-17T00:10:50.418Z,17.07
2023-12-17T00:13:20.748Z,17.03
2023-12-17T00:15:48.750Z,16.87
2023-12-17T00:18:16.893Z,15.67
2023-12-17T00:20:45.282Z,14.80
2023-12-17T00:23:13.098Z,15.13
2023-12-17T00:25:41.083Z,18.50
2023-12-17T00:28:08.957Z,16.10
2023-12-17T00:30:38.552Z,15.60
2023-12-17T00:33:06.908Z,16.83
2023-12-17T00:35:35.462Z,14.67
2023-12-17T00:38:03.397Z,17.20
2023-12-17T00:40:31.262Z,15.53
2023-12-17T00:42:59.370Z,14.33
2023-12-17T00:45:27.199Z,13.47
2023-12-17T00:47:56.451Z,14.37
2023-12-17T00:50:24.562Z,14.70
2023-12-17T00:52:52.533Z,14.90
2023-12-17T00:55:20.481Z,14.03
2023-12-17T00:57:48.233Z,14.20
2023-12-17T01:00:16.938Z,13.90
2023-12-17T01:02:45.183Z,13.70
2023-12-17T01:05:14.507Z,13.87
2023-12-17T01:07:42.573Z,13.70
2023-12-17T01:10:10.669Z,13.83
2023-12-17T01:12:39.088Z,13.63
2023-12-17T01:15:07.696Z,13.73
2023-12-17T01:17:35.956Z,15.13
2023-12-17T01:20:04.028Z,14.07
2023-12-17T01:22:33.271Z,13.17
2023-12-17T01:25:01.605Z,12.20
2023-12-17T01:27:29.448Z,12.23
2023-12-17T01:29:57.926Z,13.63
2023-12-17T01:32:25.760Z,14.00
2023-12-17T01:34:54.139Z,11.23
2023-12-17T01:37:22.201Z,12.43
2023-12-17T01:39:52.409Z,12.60
2023-12-17T01:42:20.164Z,12.03
2023-12-17T01:44:48.251Z,12.00
2023-12-17T01:47:16.059Z,11.70
2023-12-17T01:49:44.144Z,12.07
2023-12-17T01:52:12.052Z,12.57
2023-12-17T01:54:40.267Z,11.87
2023-12-17T01:57:09.714Z,11.83
2023-12-17T01:59:38.164Z,12.57
2023-12-17T02:02:06.103Z,14.77
2023-12-17T02:04:33.991Z,11.87
2023-12-17T02:07:02.300Z,12.47
2023-12-17T02:09:30.136Z,11.87
2023-12-17T02:11:58.258Z,13.00
2023-12-17T02:14:27.909Z,12.57
2023-12-17T02:16:55.803Z,12.60
2023-12-17T02:19:23.959Z,10.70
2023-12-17T02:21:52.019Z,10.77
2023-12-17T02:24:21.178Z,13.20
2023-12-17T02:26:48.968Z,13.27
2023-12-17T02:29:16.792Z,12.63
2023-12-17T02:31:44.633Z,14.37
2023-12-17T02:34:12.880Z,13.57
2023-12-17T02:36:43.744Z,14.13
2023-12-17T02:39:12.174Z,14.07
2023-12-17T02:41:41.288Z,15.23
2023-12-17T02:44:09.334Z,14.93
2023-12-17T02:46:37.111Z,14.10
2023-12-17T02:49:05.323Z,14.67
2023-12-17T02:51:33.193Z,14.77
2023-12-17T02:54:01.305Z,15.33
2023-12-17T02:56:29.067Z,14.60
2023-12-17T02:58:58.393Z,14.43
2023-12-17T03:01:26.185Z,15.23
2023-12-17T03:03:54.170Z,13.17
2023-12-17T03:06:22.213Z,14.53
2023-12-17T03:08:50.005Z,13.90
2023-12-17T03:11:18.036Z,15.07
2023-12-17T03:13:46.164Z,12.77
2023-12-17T03:16:15.507Z,14.43
2023-12-17T03:18:43.834Z,14.77
2023-12-17T03:21:14.115Z,14.77
2023-12-17T03:23:41.898Z,15.07
2023-12-17T03:26:10.028Z,15.07
2023-12-17T03:28:37.886Z,14.67
2023-12-17T03:31:06.539Z,14.40
2023-12-17T03:33:35.820Z,14.63
2023-12-17T03:36:03.654Z,12.90
2023-12-17T03:38:31.715Z,14.47
2023-12-17T03:40:59.441Z,14.57
2023-12-17T03:43:27.455Z,16.50
2023-12-17T03:45:55.308Z,13.27
2023-12-17T03:48:23.444Z,14.30
2023-12-17T03:50:52.840Z,14.97
2023-12-17T03:53:20.805Z,13.53
2023-12-17T03:55:48.576Z,14.13
2023-12-17T03:58:16.581Z,13.40
2023-12-17T04:00:44.382Z,11.37
2023-12-17T04:03:12.195Z,14.57
2023-12-17T04:05:39.982Z,14.40
2023-12-17T04:08:09.130Z,13.63
2023-12-17T04:10:37.332Z,12.07
2023-12-17T04:13:05.131Z,12.90
2023-12-17T04:15:33.106Z,12.43
2023-12-17T04:18:01.010Z,13.30
2023-12-17T04:20:29.062Z,14.43
2023-12-17T04:22:56.800Z,13.37
2023-12-17T04:25:26.479Z,15.10
2023-12-17T04:27:54.396Z,14.23
2023-12-17T04:30:22.267Z,16.47
2023-12-17T04:32:50.356Z,17.17
2023-12-17T04:35:18.343Z,16.80
2023-12-17T04:37:46.583Z,14.83
2023-12-17T04:40:15.693Z,16.97
2023-12-17T04:42:45.505Z,15.27
2023-12-17T04:45:13.293Z,13.53
2023-12-17T04:47:41.530Z,14.67
2023-12-17T04:50:10.533Z,15.40
2023-12-17T04:52:38.306Z,14.17
2023-12-17T04:55:07.381Z,14.63
2023-12-17T04:57:35.261Z,13.53
2023-12-17T05:00:07.012Z,14.27
2023-12-17T05:02:34.962Z,14.17
2023-12-17T05:05:02.847Z,15.03
2023-12-17T05:07:30.914Z,14.77
2023-12-17T05:09:59.088Z,13.77
2023-12-17T05:12:27.205Z,13.70
2023-12-17T05:14:55.033Z,13.77
2023-12-17T05:17:24.726Z,15.03
2023-12-17T05:19:52.790Z,15.43
2023-12-17T05:22:20.822Z,14.60
2023-12-17T05:24:49.774Z,14.90
2023-12-17T05:27:17.756Z,15.40
2023-12-17T05:29:45.818Z,14.80
2023-12-17T05:32:13.586Z,14.77
2023-12-17T05:34:42.724Z,14.53
2023-12-17T05:37:10.521Z,14.13
2023-12-17T05:39:38.627Z,14.43
2023-12-17T05:42:06.741Z,14.03
2023-12-17T05:44:34.539Z,14.43
2023-12-17T05:47:02.509Z,13.30
2023-12-17T05:49:30.410Z,12.63
2023-12-17T05:51:59.917Z,14.53
2023-12-17T05:54:27.789Z,13.63
2023-12-17T05:56:55.985Z,14.17
2023-12-17T05:59:24.896Z,12.50
2023-12-17T06:01:52.961Z,14.73
2023-12-17T06:04:21.833Z,14.27
2023-12-17T06:06:49.774Z,14.03
2023-12-17T06:09:19.520Z,13.77
2023-12-17T06:11:47.313Z,13.73
2023-12-17T06:14:15.097Z,13.13
2023-12-17T06:16:43.629Z,13.53
2023-12-17T06:19:11.767Z,13.63
2023-12-17T06:21:39.894Z,14.93
2023-12-17T06:24:08.831Z,13.70
2023-12-17T06:26:38.212Z,14.53
2023-12-17T06:29:06.024Z,14.20
2023-12-17T06:31:34.123Z,15.20
2023-12-17T06:34:02.162Z,14.87
2023-12-17T06:36:30.286Z,14.83
2023-12-17T06:38:58.071Z,15.67
2023-12-17T06:41:26.100Z,14.33
2023-12-17T06:43:55.477Z,15.67
2023-12-17T06:46:23.313Z,14.87
2023-12-17T06:48:51.912Z,15.30
2023-12-17T06:51:20.326Z,15.13
2023-12-17T06:53:51.142Z,14.73
2023-12-17T06:56:20.380Z,14.23
2023-12-17T06:58:48.311Z,15.67
2023-12-17T07:01:17.802Z,16.47
2023-12-17T07:03:45.610Z,17.17
2023-12-17T07:06:13.760Z,15.70
2023-12-17T07:08:42.758Z,14.40
2023-12-17T07:11:11.132Z,16.07
2023-12-17T07:13:39.071Z,14.90
2023-12-17T07:16:08.029Z,15.23
2023-12-17T07:18:37.487Z,14.63
2023-12-17T07:21:06.103Z,15.17
2023-12-17T07:23:33.935Z,15.43
2023-12-17T07:26:01.633Z,14.43
2023-12-17T07:28:29.398Z,15.03
2023-12-17T07:30:57.488Z,13.83
2023-12-17T07:33:25.879Z,14.20
2023-12-17T07:35:55.279Z,15.07
2023-12-17T07:38:23.294Z,16.67
2023-12-17T07:40:51.047Z,16.10
2023-12-17T07:43:19.279Z,14.70
2023-12-17T07:45:47.016Z,14.93
2023-12-17T07:48:15.204Z,14.97
2023-12-17T07:50:43.662Z,13.20
2023-12-17T07:53:13.133Z,14.93
2023-12-17T07:55:40.990Z,14.63
2023-12-17T07:58:09.944Z,16.03
2023-12-17T08:00:37.835Z,16.77
2023-12-17T08:03:05.705Z,15.10
2023-12-17T08:05:33.956Z,15.77
2023-12-17T08:08:01.876Z,15.93
2023-12-17T08:10:31.520Z,15.63
2023-12-17T08:13:00.106Z,16.10
2023-12-17T08:15:28.079Z,16.73
2023-12-17T08:17:56.544Z,17.57
2023-12-17T08:20:24.420Z,17.07
2023-12-17T08:22:52.219Z,19.33
2023-12-17T08:25:20.629Z,17.63
2023-12-17T08:27:49.692Z,17.07
2023-12-17T08:30:19.257Z,17.80
2023-12-17T08:32:47.240Z,18.83
2023-12-17T08:35:16.467Z,16.53
2023-12-17T08:37:44.312Z,18.23
2023-12-17T08:40:13.410Z,18.07
2023-12-17T08:42:42.708Z,17.73
2023-12-17T08:45:13.299Z,18.03
2023-12-17T08:47:42.292Z,18.10
2023-12-17T08:50:10.789Z,17.67
2023-12-17T08:52:39.122Z,17.27
2023-12-17T08:55:08.168Z,17.10
2023-12-17T08:57:36.049Z,18.20
2023-12-17T09:00:06.339Z,16.80
2023-12-17T09:02:36.120Z,18.40
2023-12-17T09:05:04.421Z,18.27
2023-12-17T09:07:32.513Z,17.67
2023-12-17T09:10:00.765Z,19.23
2023-12-17T09:12:29.212Z,17.73
2023-12-17T09:14:57.222Z,19.50
2023-12-17T09:17:25.902Z,18.37
2023-12-17T09:19:55.636Z,17.67
2023-12-17T09:22:23.495Z,19.47
2023-12-17T09:24:51.770Z,18.90
2023-12-17T09:27:20.522Z,21.93
2023-12-17T09:29:48.313Z,20.87
2023-12-17T09:32:16.396Z,18.70
2023-12-17T09:34:44.230Z,18.50
2023-12-17T09:37:13.721Z,18.43
2023-12-17T09:39:41.480Z,17.03
2023-12-17T09:42:09.760Z,17.10
2023-12-17T09:44:37.712Z,19.00
2023-12-17T09:47:06.470Z,19.47
2023-12-17T09:49:34.508Z,18.80
2023-12-17T09:52:08.351Z,21.27
2023-12-17T09:54:37.571Z,19.03
2023-12-17T09:57:08.588Z,19.37
2023-12-17T09:59:36.694Z,20.87
2023-12-17T10:02:04.720Z,21.20
2023-12-17T10:04:32.821Z,20.10
2023-12-17T10:07:00.680Z,19.73
2023-12-17T10:09:29.156Z,19.20
2023-12-17T10:11:59.496Z,22.10
2023-12-17T10:14:29.536Z,21.63
2023-12-17T10:16:57.301Z,24.47
2023-12-17T10:19:28.113Z,21.73
2023-12-17T10:21:56.913Z,21.13
2023-12-17T10:24:36.781Z,24.83
2023-12-17T10:27:16.084Z,24.20
2023-12-17T10:29:45.224Z,21.47
2023-12-17T10:32:13.403Z,22.97
2023-12-17T10:34:42.968Z,24.53
2023-12-17T10:37:11.162Z,23.30
2023-12-17T10:39:40.096Z,24.50
2023-12-17T10:42:10.703Z,25.60
2023-12-17T10:44:41.424Z,26.07
2023-12-17T10:47:10.546Z,25.93
2023-12-17T10:49:38.728Z,27.93
2023-12-17T10:52:09.245Z,26.33
2023-12-17T10:54:37.226Z,22.63
2023-12-17T10:57:07.793Z,24.80
2023-12-17T10:59:41.356Z,26.77
2023-12-17T11:02:12.560Z,24.10
2023-12-17T11:04:46.358Z,27.73
2023-12-17T11:07:27.035Z,23.97
2023-12-17T11:10:02.994Z,25.17
2023-12-17T11:12:31.406Z,24.90
2023-12-17T11:15:02.190Z,23.90
2023-12-17T11:17:30.492Z,23.77
2023-12-17T11:20:00.550Z,24.50
2023-12-17T11:22:30.130Z,28.07
2023-12-17T11:24:59.568Z,27.47
2023-12-17T11:27:28.222Z,29.90
2023-12-17T11:29:57.725Z,28.20
2023-12-17T11:32:28.547Z,29.30
2023-12-17T11:34:58.179Z,28.13
2023-12-17T11:37:31.505Z,29.03
2023-12-17T11:39:59.438Z,29.40
2023-12-17T11:42:27.368Z,33.43
2023-12-17T11:44:55.552Z,30.97
2023-12-17T11:47:28.505Z,33.97
2023-12-17T11:50:00.841Z,32.23
2023-12-17T11:52:31.186Z,29.90
2023-12-17T11:54:59.238Z,26.20
2023-12-17T11:57:28.457Z,29.93
2023-12-17T11:59:56.448Z,30.17
2023-12-17T12:02:28.514Z,27.83
2023-12-17T12:04:57.804Z,25.13
2023-12-17T12:07:26.591Z,25.83
2023-12-17T12:10:07.504Z,24.63
2023-12-17T12:12:36.008Z,25.97
2023-12-17T12:15:05.019Z,22.73
2023-12-17T12:17:41.315Z,25.53
2023-12-17T12:20:14.068Z,22.10
2023-12-17T12:22:47.239Z,21.37
2023-12-17T12:25:21.217Z,24.90
2023-12-17T12:27:49.322Z,23.47
2023-12-17T12:30:30.251Z,26.43
2023-12-17T12:33:09.573Z,22.50
2023-12-17T12:35:39.257Z,23.73
2023-12-17T12:38:23.311Z,22.30
2023-12-17T12:40:52.362Z,22.17
2023-12-17T12:43:21.294Z,22.47
2023-12-17T12:45:50.287Z,25.30
2023-12-17T12:48:19.859Z,20.50
2023-12-17T12:50:49.976Z,22.70
2023-12-17T12:53:26.027Z,23.03
2023-12-17T12:55:55.676Z,21.33
2023-12-17T12:58:24.149Z,24.07
2023-12-17T13:00:52.266Z,25.50
2023-12-17T13:03:21.127Z,24.13
2023-12-17T13:05:51.469Z,24.93
2023-12-17T13:08:21.486Z,25.00
2023-12-17T13:10:49.817Z,22.17
2023-12-17T13:13:17.839Z,21.40
2023-12-17T13:15:45.696Z,24.23
2023-12-17T13:18:13.807Z,22.30
2023-12-17T13:20:41.902Z,22.70
2023-12-17T13:23:11.484Z,21.97
2023-12-17T13:25:40.281Z,24.17
2023-12-17T13:28:08.330Z,24.33
2023-12-17T13:30:36.316Z,21.70
2023-12-17T13:33:05.792Z,22.67
2023-12-17T13:35:34.527Z,21.63
2023-12-17T13:38:02.578Z,22.87
2023-12-17T13:40:31.990Z,23.43
2023-12-17T13:43:00.880Z,21.50
2023-12-17T13:45:28.725Z,21.33
2023-12-17T13:47:56.666Z,23.27
2023-12-17T13:50:24.750Z,24.40
2023-12-17T13:52:52.511Z,21.87
2023-12-17T13:55:20.399Z,21.77
2023-12-17T13:57:50.173Z,23.53
2023-12-17T14:00:18.663Z,22.47
2023-12-17T14:02:46.475Z,23.67
2023-12-17T14:05:15.104Z,23.57
2023-12-17T14:07:43.456Z,23.30
2023-12-17T14:10:12.562Z,22.07
2023-12-17T14:12:41.663Z,24.50
2023-12-17T14:15:11.838Z,23.03
2023-12-17T14:17:39.829Z,21.20
2023-12-17T14:20:14.103Z,23.07
2023-12-17T14:22:45.356Z,21.70
2023-12-17T14:25:14.029Z,22.37
2023-12-17T14:27:43.766Z,19.20
2023-12-17T14:30:16.242Z,20.97
2023-12-17T14:32:44.408Z,21.30
2023-12-17T14:35:13.349Z,20.73
2023-12-17T14:37:41.302Z,21.20
2023-12-17T14:40:10.178Z,20.60
2023-12-17T14:42:38.532Z,20.50
2023-12-17T14:45:08.061Z,23.07
2023-12-17T14:47:38.416Z,21.80
2023-12-17T14:50:07.442Z,21.63
2023-12-17T14:52:36.169Z,19.00
2023-12-17T14:55:04.163Z,21.33
2023-12-17T14:57:32.905Z,22.53
2023-12-17T15:00:00.948Z,22.67
2023-12-17T15:02:30.010Z,23.37
2023-12-17T15:04:59.182Z,22.70
2023-12-17T15:07:27.048Z,21.53
2023-12-17T15:10:01.941Z,25.93
2023-12-17T15:12:30.251Z,22.70
2023-12-17T15:14:58.122Z,23.60
2023-12-17T15:17:26.648Z,20.27
2023-12-17T15:19:54.941Z,21.83
2023-12-17T15:22:24.105Z,22.87
2023-12-17T15:24:52.152Z,21.07
2023-12-17T15:27:20.172Z,21.40
2023-12-17T15:29:47.970Z,22.07
2023-12-17T15:32:16.118Z,19.77
2023-12-17T15:34:44.032Z,21.73
2023-12-17T15:37:12.267Z,22.70
2023-12-17T15:39:42.721Z,22.53
2023-12-17T15:42:11.006Z,23.93
2023-12-17T15:44:40.370Z,23.07
2023-12-17T15:47:08.288Z,24.10
2023-12-17T15:49:38.941Z,24.07
2023-12-17T15:52:07.964Z,23.50
2023-12-17T15:54:36.283Z,20.33
2023-12-17T15:57:06.272Z,20.50
2023-12-17T15:59:35.901Z,19.93
2023-12-17T16:02:04.204Z,17.83
2023-12-17T16:04:32.790Z,22.00
2023-12-17T16:07:00.898Z,19.07
2023-12-17T16:09:29.211Z,17.57
2023-12-17T16:11:57.190Z,18.33
2023-12-17T16:14:26.489Z,18.17
2023-12-17T16:16:54.774Z,18.33
2023-12-17T16:19:22.660Z,22.63
2023-12-17T16:21:52.901Z,21.57
2023-12-17T16:24:21.093Z,20.40
2023-12-17T16:26:49.386Z,20.40
2023-12-17T16:29:18.177Z,20.93
2023-12-17T16:31:47.636Z,18.93
2023-12-17T16:34:15.554Z,18.80
2023-12-17T16:36:44.642Z,21.10
2023-12-17T16:39:13.475Z,19.43
2023-12-17T16:41:45.596Z,18.73
2023-12-17T16:44:13.744Z,19.70
2023-12-17T16:46:41.984Z,19.33
2023-12-17T16:49:12.034Z,20.50
2023-12-17T16:51:39.899Z,18.63
2023-12-17T16:54:08.036Z,16.90
2023-12-17T16:56:35.881Z,18.97
2023-12-17T16:59:04.480Z,16.23
2023-12-17T17:01:32.329Z,17.67
2023-12-17T17:04:00.542Z,16.90
2023-12-17T17:06:29.724Z,16.33
2023-12-17T17:08:57.525Z,17.00
2023-12-17T17:11:25.624Z,16.00
2023-12-17T17:13:53.428Z,16.43
2023-12-17T17:16:22.586Z,16.40
2023-12-17T17:18:50.616Z,16.83
2023-12-17T17:21:19.167Z,15.27
2023-12-17T17:23:48.370Z,15.97
2023-12-17T17:26:16.617Z,16.10
2023-12-17T17:28:45.209Z,15.33
2023-12-17T17:31:13.394Z,16.33
2023-12-17T17:33:41.437Z,16.80
2023-12-17T17:36:10.192Z,14.93
2023-12-17T17:38:39.800Z,15.77
2023-12-17T17:41:11.315Z,16.00
2023-12-17T17:43:39.169Z,14.50
2023-12-17T17:46:07.685Z,16.40
2023-12-17T17:48:36.323Z,15.27
2023-12-17T17:51:05.738Z,15.53
2023-12-17T17:53:34.749Z,15.07
2023-12-17T17:56:04.752Z,14.87
2023-12-17T17:58:33.994Z,13.93
2023-12-17T18:01:01.993Z,14.53
2023-12-17T18:03:29.879Z,14.47
2023-12-17T18:05:57.983Z,14.67
2023-12-17T18:08:26.125Z,16.83
2023-12-17T18:10:53.853Z,14.27
2023-12-17T18:13:23.519Z,13.80
2023-12-17T18:15:53.008Z,14.33
2023-12-17T18:18:21.307Z,15.23
2023-12-17T18:20:49.172Z,14.53
2023-12-17T18:23:17.325Z,15.87
2023-12-17T18:25:46.291Z,14.80
2023-12-17T18:28:14.883Z,14.57
2023-12-17T18:30:44.063Z,14.97
2023-12-17T18:33:14.175Z,13.83
2023-12-17T18:35:42.424Z,14.93
2023-12-17T18:38:10.187Z,16.20
2023-12-17T18:40:38.370Z,14.87
2023-12-17T18:43:06.213Z,16.00
2023-12-17T18:45:34.345Z,14.23
2023-12-17T18:48:02.649Z,14.93
2023-12-17T18:50:32.008Z,14.00
2023-12-17T18:53:00.360Z,12.17
2023-12-17T18:55:28.201Z,14.30
2023-12-17T18:57:56.015Z,14.70
2023-12-17T19:00:23.932Z,14.63
2023-12-17T19:02:52.116Z,14.63
2023-12-17T19:05:19.942Z,17.07
2023-12-17T19:07:49.870Z,17.50
2023-12-17T19:10:18.629Z,15.03
2023-12-17T19:12:49.133Z,19.43
2023-12-17T19:15:17.822Z,14.53
2023-12-17T19:17:45.715Z,16.47
2023-12-17T19:20:13.654Z,16.17
2023-12-17T19:22:41.603Z,16.47
2023-12-17T19:25:11.312Z,16.57
2023-12-17T19:27:39.162Z,18.83
2023-12-17T19:30:09.248Z,18.27
2023-12-17T19:32:37.172Z,18.27
2023-12-17T19:35:05.856Z,16.73
2023-12-17T19:37:33.999Z,17.37
2023-12-17T19:40:01.952Z,17.93
2023-12-17T19:42:31.388Z,16.30
2023-12-17T19:44:59.190Z,18.70
2023-12-17T19:47:27.038Z,19.47
2023-12-17T19:49:54.950Z,16.70
2023-12-17T19:52:23.044Z,15.90
2023-12-17T19:54:50.879Z,17.60
2023-12-17T19:57:18.728Z,17.47
2023-12-17T19:59:50.081Z,15.43
2023-12-17T20:02:17.922Z,17.53
2023-12-17T20:04:45.910Z,15.63
2023-12-17T20:07:14.160Z,15.30
2023-12-17T20:09:42.327Z,15.90
2023-12-17T20:12:10.359Z,15.73
2023-12-17T20:14:38.580Z,15.90
2023-12-17T20:17:07.861Z,14.83
2023-12-17T20:19:35.943Z,16.83
2023-12-17T20:22:03.822Z,16.83
2023-12-17T20:24:31.933Z,17.33
2023-12-17T20:26:59.765Z,16.20
2023-12-17T20:29:27.491Z,17.60
2023-12-17T20:31:56.440Z,16.67
2023-12-17T20:34:25.908Z,16.70
2023-12-17T20:36:54.020Z,17.30
2023-12-17T20:39:21.790Z,13.20
2023-12-17T20:41:49.996Z,15.20
2023-12-17T20:44:18.074Z,15.13
2023-12-17T20:46:47.230Z,15.13
2023-12-17T20:49:15.235Z,16.67
2023-12-17T20:51:44.698Z,16.80
2023-12-17T20:54:12.810Z,15.30
2023-12-17T20:56:43.654Z,15.80
2023-12-17T20:59:11.554Z,14.27
2023-12-17T21:01:39.576Z,15.10
2023-12-17T21:04:07.487Z,15.03
2023-12-17T21:06:35.580Z,15.67
2023-12-17T21:09:05.408Z,15.37
2023-12-17T21:11:33.316Z,15.73
2023-12-17T21:14:01.342Z,15.07
2023-12-17T21:16:29.592Z,15.73
2023-12-17T21:18:58.113Z,13.73
2023-12-17T21:21:26.024Z,14.77
2023-12-17T21:23:53.782Z,14.73
2023-12-17T21:26:23.389Z,14.47
2023-12-17T21:28:51.138Z,16.67
2023-12-17T21:31:19.420Z,15.53
2023-12-17T21:33:47.302Z,15.43
2023-12-17T21:36:15.351Z,16.13
2023-12-17T21:38:44.251Z,14.50
2023-12-17T21:41:12.334Z,18.20
2023-12-17T21:43:42.170Z,15.47
2023-12-17T21:46:11.945Z,16.50
2023-12-17T21:48:40.078Z,15.47
2023-12-17T21:51:07.951Z,15.40
2023-12-17T21:53:35.889Z,14.90
2023-12-17T21:56:03.771Z,16.57
2023-12-17T21:58:32.197Z,16.13
2023-12-17T22:01:01.528Z,15.40
2023-12-17T22:03:29.832Z,16.87
2023-12-17T22:05:57.737Z,15.90
2023-12-17T22:08:25.796Z,14.50
2023-12-17T22:10:53.662Z,18.27
2023-12-17T22:13:21.686Z,16.40
2023-12-17T22:15:49.498Z,15.53
2023-12-17T22:18:19.068Z,16.30
2023-12-17T22:20:46.908Z,16.10
2023-12-17T22:23:14.940Z,14.27
2023-12-17T22:25:42.743Z,15.87
2023-12-17T22:28:10.544Z,15.77
2023-12-17T22:30:38.858Z,14.80
2023-12-17T22:33:07.038Z,16.17
2023-12-17T22:35:36.318Z,16.90
2023-12-17T22:38:04.739Z,16.10
2023-12-17T22:40:32.831Z,15.20
2023-12-17T22:43:00.565Z,15.53
2023-12-17T22:45:28.532Z,14.93
2023-12-17T22:47:56.425Z,15.67
2023-12-17T22:50:24.238Z,13.60
2023-12-17T22:52:53.794Z,15.40
2023-12-17T22:55:21.629Z,14.60
2023-12-17T22:57:49.654Z,14.90
2023-12-17T23:00:19.078Z,14.10
2023-12-17T23:02:48.490Z,16.40
2023-12-17T23:05:19.167Z,15.27
2023-12-17T23:07:47.026Z,15.27
2023-12-17T23:10:18.775Z,15.67
2023-12-17T23:12:47.012Z,14.77
2023-12-17T23:15:14.941Z,16.30
2023-12-17T23:17:43.123Z,16.93
2023-12-17T23:20:12.454Z,17.80
2023-12-17T23:22:40.332Z,17.53
2023-12-17T23:25:09.089Z,15.80
2023-12-17T23:27:38.678Z,15.37
2023-12-17T23:30:08.302Z,16.73
2023-12-17T23:32:36.918Z,15.40
2023-12-17T23:35:05.147Z,16.03
2023-12-17T23:37:33.337Z,16.47
2023-12-17T23:40:01.099Z,17.73
2023-12-17T23:42:29.187Z,17.73
2023-12-17T23:45:06.515Z,17.10
2023-12-17T23:47:36.548Z,15.83
2023-12-17T23:50:04.707Z,15.70
2023-12-17T23:52:33.130Z,16.37
2023-12-17T23:55:02.198Z,19.33
2023-12-17T23:57:30.160Z,17.63
2023-12-17T23:59:59.484Z,19.63
